Terminal Aerodrome Forecast
Issued by NWS Charleston, WV

Current Version | Previous Version | Graphics & Text | Print | Product List | Glossary On
Versions: 1 2 3 4 5 6 7 8 9 10 11 12 13 14 15 16 17 18 19 20 21 22 23 24
000
FTUS41 KRLX 271551 AAB
TAFBKW
TAF AMD
KBKW 271551Z 2716/2812 00000KT 6SM HZ BKN030
     FM271700 VRB03KT 6SM SHRA HZ VCTS BKN035CB
     FM280000 00000KT P6SM BKN035
     FM281000 VRB03KT P6SM BKN200=

USA.gov is the U.S. government's official web portal to all federal, state and local government web resources and services.